Extreme weather reports worldwide

Atmospheric pressure

Low pressure

Station
 
Location
 
Name
 
Wind
Knots
Gust
Knots
Vis
SM
Temp/Dew
C
Baro
inHg
METAR
 
NZCM 14 23 -26/-34 28.94 NZCM 250755Z AUTO 01014G23KT 310V020 9999 CLR M27/M35 A2894 RMK AO2 SLP806 T12681349 $
SBT USDA Sabetta, RU Sabetta International Airport 6 0/-2 29.23 USDA 250800Z 23003MPS 9999 BKN009 00/M02 Q0990 R04/290150 NOSIG RMK QFE741/0988
YQK CYQK Kenora, CA Kenora Airport 14 6 7/7 29.38 CYQK 250800Z 19014KT 6SM -SHRA BR BKN004 OVC011 07/07 A2938 RMK SC5SC3 CVCTV CLD EMBD SLP957
YWG CYWG Winnipeg, CA Winnipeg / James Armstrong Richardson International Airport 13 1.5 8/8 29.39 CYWG 250800Z 29013KT 1 1/2SM -RA BR OVC002 08/08 A2939 RMK ST8 SLP961
YHD CYHD Dryden, CA Dryden Regional Airport 9 7 8/8 29.40 CYHD 250800Z AUTO 12009KT 7SM -RA OVC005 08/08 A2940 RMK SLP969

Station
 
Location
 
Name
 
Wind
Knots
Gust
Knots
Vis
SM
Temp/Dew
C
Baro
inHg
METAR
 
RRT KRRT Warroad, US Warroad International Memorial Airport 12 17 2 5/3 29.41 KRRT 250815Z AUTO 23012G17KT 2SM -RA OVC004 05/03 A2941 RMK AO2
ROX KROX Roseau, US Roseau Municipal Rudy Billberg Field 13 20 2.5 6/5 29.43 KROX 250815Z AUTO 24013G20KT 2 1/2SM BR OVC006 06/05 A2943 RMK AO2
GAU VEGT Guwahati, IN Lokpriya Gopinath Bordoloi International Airport 10 3.11 40/25 29.44 VEGT 250800Z 34010KT 5000 HZ FEW020 SCT100 40/25 Q0997 NOSIG
CCU VECC Kolkata, IN Netaji Subhash Chandra Bose International Airport 11 2.8 36/28 29.44 VECC 250800Z 13011KT 4500 HZ SCT020 FEW030CB SCT100 36/28 Q0997 TEMPO TL1000 10015G25KT 2000 TSRA
IXA VEAT Agartala, IN Agartala Airport 2 3.11 38/27 29.44 VEAT 250800Z 28002KT 5000 HZ SCT018 38/27 Q0997 NOSIG
CHC NZCH Christchurch, NZ Christchurch International Airport 10 12/2 29.44 NZCH 250800Z AUTO 27010KT 240V310 9999 NCD 12/02 Q0997
YXL CYXL Sioux Lookout, CA Sioux Lookout Airport 7 15 9/9 29.44 CYXL 250800Z 13007KT 100V180 15SM -SHRA BKN007 OVC012 09/09 A2944 RMK SF6SC2 SLP978
BDE KBDE Baudette, US Baudette International Airport 12 18 7 5/3 29.44 KBDE 250753Z AUTO 21012G18KT 7SM OVC011 06/03 A2944 RMK AO2 SLP975 T00560033
MAA VOMM Chennai, IN Chennai International Airport 6 3.11 37/26 29.47 VOMM 250800Z 24006KT 5000 HZ SCT020 BKN100 37/26 Q0998 NOSIG
VGHS 3 3.11 37/25 29.47 VGHS 250800Z 11003KT 5000 HZ SCT015 37/25 Q0998 NOSIG
CGP VGEG Chittagong, BD Shah Amanat International Airport 12 2.49 30/27 29.47 VGEG 250800Z 05012KT 4000 RA SCT017 FEW030CB BKN100 30/27 Q0998 TEMPO TSRA
RRK VERK IN Rourkela Airport 4 3.73 38/21 29.47 VERK 250800Z 09004KT 6000 SCT020 38/21 Q0998
PAT VEPT Patna, IN Lok Nayak Jayaprakash Airport 5 3.11 41/27 29.47 VEPT 250800Z 06005KT 5000 HZ FEW020 SCT025 41/27 Q0998 NOSIG
DMU VEMR Dimapur, IN Dimapur Airport 6 3.11 38/25 29.47 VEMR 250800Z 34006KT 5000 HZ FEW020 SCT100 38/25 Q0998 NOSIG
VEKI 5 3.11 39/20 29.47 VEKI 250800Z 20005KT 5000 HZ FEW025 SCT030 39/20 Q0998 NOSIG
IXW VEJS Jamshedpur, IN Sonari Airport 4 3.11 38/23 29.47 VEJS 250800Z 14004KT 5000 HZ SCT020 SCT025 BKN100 38/23 Q0998
JRG VEJH IN Jharsuguda Airport 3 4.35 39/24 29.47 VEJH 250800Z 26003KT 7000 BKN020 SCT025 39/24 Q0998
VEHO 11 3.73 38/21 29.47 VEHO 250800Z 07011KT 6000 FEW025 38/21 Q0998 NOSIG
GAY VEGY IN Gaya Airport 8 4.35 39/20 29.47 VEGY 250800Z 10008KT 7000 SCT020 SCT025 39/20 Q0998 NOSIG
RDP VEDG Durgapur, IN Kazi Nazrul Islam Airport 9 3.11 37/25 29.47 VEDG 250800Z 05009KT 5000 HZ FEW020 SCT025 37/25 Q0998 NOSIG
COH VECO IN Cooch Behar Airport 3 3.11 39/24 29.47 VECO 250800Z 07003KT 5000 HZ SCT025 39/24 Q0998 NOSIG
BBI VEBS Bhubaneswar, IN Biju Patnaik Airport 10 3.73 35/26 29.47 VEBS 250800Z 07010KT 6000 SCT020 BKN100 35/26 Q0998 NOSIG
VEBN 1 3.11 42/19 29.47 VEBN 250800Z VRB01KT 5000 HZ FEW025 SCT100 42/19 Q0998 NOSIG
VEAY 2 3.11 39/21 29.47 VEAY 250800Z VRB02KT 5000 HZ FEW025 39/21 Q0998 NOSIG
INL KINL International Falls, US Falls International Airport 7 17 4/2 29.47 KINL 250754Z AUTO 21007G17KT 10SM FEW026 OVC037 04/03 A2947 RMK AO2 RAE11B28E41 SLP989 P0000 T00440028
KHCO Hallock, US Hallock Municipal Airport 15 21 4/4 29.48 KHCO 250815Z AUTO 27015G21KT 10SM RA OVC012 04/04 A2948 RMK AO2
KVWU Waskish, US Waskish Municipal Airport 21 30 7 6/4 29.49 KVWU 250815Z AUTO 24021G30KT 7SM DZ BKN012 OVC018 06/04 A2949 RMK AO2
KORB Orr, US Orr Regional Airport 7 17 7 4/4 29.50 KORB 250813Z AUTO 22007G17KT 7SM -DZ 04/04 A2950 RMK AO2
VOVZ 5 3.11 31/25 29.50 VOVZ 250800Z 23005KT 5000 HZ SCT018 BKN090 31/25 Q0999 TEMPO DZ
TIR VOTP Tirupati, IN Tirupati Airport 8 3.73 39/19 29.50 VOTP 250800Z 33008KT 6000 SCT020 SCT100 39/19 Q0999 NOSIG
RJA VORY Rajahmundry, IN Rajahmundry Airport 2 3.11 33/28 29.50 VORY 250800Z VRB02KT 5000 HZ FEW020 BKN090 33/28 Q0999 NOSIG
VGA VOBZ Gannavaram, IN Vijayawada Airport 6 3.73 28/24 29.50 VOBZ 250800Z 06006KT 6000 SCT018 BKN080 28/24 Q0999 NOSIG
VOAR IN Arkonam Airport 8 3.73 38/20 29.50 VOAR 250800Z 31008KT 6000 SCT018 BKN090 38/20 Q0999 NOSIG
LKO VILK Lucknow, IN Chaudhary Charan Singh International Airport 2 3.11 39/21 29.50 VILK 250800Z VRB02KT 5000 HZ FEW020 SCT025 39/21 Q0999 NOSIG
VETJ 0 3.73 38/22 29.50 VETJ 250800Z 00000KT 6000 FEW020 38/22 Q0999
DIB VEMN Dibrugarh, IN Dibrugarh Airport 4 4.97 38/25 29.50 VEMN 250800Z 02004KT 8000 FEW025 38/25 Q0999 NOSIG
IXI VELR Lilabari, IN North Lakhimpur Airport 5 3.73 38/24 29.50 VELR 250800Z 05005KT 6000 FEW025 38/24 Q0999
VAGD 1 3.11 41/25 29.50 VAGD 250800Z 33001KT 5000 HZ SCT025 41/25 Q0999 NOSIG
ZBR OIZC Chabahar, IR Konarak Airport 4 4.97 41/19 29.50 OIZC 250800Z 10004KT 8000 NSC 41/19 Q0999 A2951
K96D 12 20 3/3 29.51 K96D 250815Z AUTO 29012G20KT 10SM SCT012 BKN017 OVC065 03/03 A2951 RMK AO2
ORT PAOR Northway, US Northway Airport 0 8/3 29.51 PAOR 250753Z 00000KT 10SM BKN075 OVC100 09/04 A2951 RMK AO2 SLP999 T00890039 $
EIL PAEI Fairbanks, US Eielson Air Force Base 3 9 9/8 29.52 PAEI 250816Z AUTO 34003KT 9SM -RA CLR 09/08 A2952 RMK AO2 RAE0757RAB16 SLP001 $
YMA CYMA Mayo, CA Mayo Airport 5 20 8/5 29.52 CYMA 250800Z 02005KT 20SM SCT040 BKN067 08/05 A2952 RMK SC3AC4 SLP015
YDB CYDB Burwash, CA Burwash Airport 12 18 9 5/-2 29.52 CYDB 250800Z AUTO 12012G18KT 9SM BKN096 05/M02 A2952 RMK SLP026
EAA PAEG Eagle, US Eagle Airport 0 7 9/7 29.52 PAEG 250753Z AUTO 00000KT 7SM -RA SCT013 OVC036 09/08 A2952 RMK AO2 RAB52 SLP999 P0000 T00940078 TSNO $

High pressure

Station
 
Location
 
Name
 
Wind
Knots
Gust
Knots
Vis
SM
Temp/Dew
C
Baro
inHg
METAR
 
LPB SLLP La Paz / El Alto, BO El Alto International Airport 3 -1/-3 30.65 SLLP 250800Z 03003KT 9999 NSC M01/M03 Q1038
FDMY 2 25/15 30.59 FDMY 250800Z AUTO 20002KT //// // ////// 25/15 Q1036
KOWX Ottawa, US Putnam County Airport 3 18/13 30.57 KOWX 250815Z AUTO 16003KT 10SM CLR 18/13 A3057 RMK AO1
CUZ SPZO Cusco, PE Alejandro Velasco Astete International Airport 2 6/2 30.53 SPZO 250800Z VRB02KT 9999 NSC 06/02 Q1034 NOSIG RMK BIRD HAZARD RWY 10/28 PP000
FASI Del Fouche, ZA Springs Airfield 3 17/7 30.50 FASI 250800Z AUTO 02003KT //// // ////// 17/07 Q1033

Station
 
Location
 
Name
 
Wind
Knots
Gust
Knots
Vis
SM
Temp/Dew
C
Baro
inHg
METAR
 
CRD SAVC Comodoro Rivadavia, AR General E. Mosconi Airport 4 -1/-7 30.50 SAVC 250800Z 31004KT CAVOK M01/M07 Q1033
FAEO Ermelo, ZA Ermelo Airport 0 9/9 30.44 FAEO 250725Z AUTO 00000KT //// // ////// 09/09 Q1031
PTG FAPP Polokwane, ZA Polokwane International Airport 4 4.35 16/11 30.44 FAPP 250800Z 03004KT 7000 BKN015 16/11 Q1031 NOSIG
FAVV Vereeniging, ZA Vereeniging Airport 2 19/6 30.44 FAVV 250800Z AUTO 02002KT //// // ////// 19/06 Q1031
VOG URWW Volgograd, RU Volgograd International Airport 14 18/-2 30.44 URWW 250800Z 09007MPS CAVOK 18/M02 Q1031 R05/010070 NOSIG
LPK UUOL Lipetsk, RU Lipetsk Airport 2 21/-3 30.44 UUOL 250800Z 21001MPS CAVOK 21/M03 Q1031 R15/////// NOSIG
VOZ UUOO Voronezh, RU Voronezh International Airport 6 20/-4 30.44 UUOO 250800Z 16003MPS 090V200 CAVOK 20/M04 Q1031 R12/010070 NOSIG RMK QFE759
UWSG 8 21/-2 30.44 UWSG 250800Z 29004MPS 250V340 CAVOK 21/M02 Q1031 R26/CLRD70 NOSIG RMK QFE770/1027
ANX ENAN Andenes, NO Andøya Airport 6 7/0 30.44 ENAN 250820Z AUTO 13006KT 100V160 9999 OVC029/// 07/00 Q1031
LKN ENLK Leknes, NO Leknes Airport 5 10/1 30.41 ENLK 250750Z VRB05KT CAVOK 10/01 Q1030
BSF PHSF Camp Pohakuloa, US Bradshaw Army Airfield 5 13/11 30.41 PHSF 250755Z AUTO 12005KT 10SM CLR 13/11 A3041 RMK AO2 SLP177 T01310110 $
FAJB 3 17/7 30.41 FAJB 250800Z AUTO 06003KT //// // ////// 17/07 Q1030
HLA FALA Johannesburg, ZA Lanseria Airport 2 17/7 30.41 FALA 250800Z VRB02KT CAVOK 17/07 Q1030 NOSIG
FDPP 3 18/13 30.41 FDPP 250800Z AUTO 28003KT //// // ////// 18/13 Q1030
ROS SAAR Rosario, AR Islas Malvinas Airport 4 2/-1 30.41 SAAR 250800Z 20004KT CAVOK 02/M01 Q1030
RGL SAWG Rio Gallegos, AR Piloto Civil N. Fernández Airport 4 1/0 30.41 SAWG 250800Z 36004KT 9999 SCT020 01/M00 Q1030
GXQ SCCY Coyhaique, CL Teniente Vidal Airport 3 -7/-9 30.41 SCCY 250800Z AUTO 21003KT 120V280 CAVOK M07/M09 Q1030
GUW UATG Atyrau, KZ Atyrau Airport 8 18/-3 30.41 UATG 250800Z 03004MPS 340V100 CAVOK 18/M03 Q1030 NOSIG RMK QFE774/1032
KLF UUBC Kaluga, RU Grabtsevo Airport 6 20/3 30.41 UUBC 250800Z 26003MPS 180V320 CAVOK 20/03 Q1030 R13/CLRD60 NOSIG RMK QFE754/1006
DME UUDD Moscow, RU Domodedovo International Airport 10 21/1 30.41 UUDD 250800Z 24005MPS CAVOK 21/01 Q1030 R32L/CLRD60 NOSIG
OSF UUMO Moscow, RU Ostafyevo International Airport 8 20/3 30.41 UUMO 250800Z 23004MPS 190V260 CAVOK 20/03 Q1030 R07/CLRD60 NOSIG RMK QFE757/1010
EGO UUOB Belgorod, RU Belgorod International Airport 12 20/-3 30.41 UUOB 250800Z 12006MPS CAVOK 20/M03 Q1030 R11/010070 NOSIG
URS UUOK Kursk, RU Kursk East Airport 10 20/-2 30.41 UUOK 250800Z 13005MPS 090V150 CAVOK 20/M02 Q1030 R12/090060 NOSIG RMK QFE755/1006
SKX UWPS Saransk, RU Saransk Airport 8 21/1 30.41 UWPS 250800Z 29004MPS CAVOK 21/01 Q1030 R20/CLRD60 NOSIG RMK QFE754
BDU ENDU Målselv, NO Bardufoss Airport 7 8/-3 30.41 ENDU 250820Z 31007KT 260V340 9999 FEW040 BKN050 08/M03 Q1030 NOSIG RMK WIND 1100FT VRB03KT WIND 2200FT 32007KT
EVE ENEV Evenes, NO Harstad/Narvik Airport, Evenes 5 9/1 30.41 ENEV 250820Z 35005KT 280V030 CAVOK 09/01 Q1030 NOSIG RMK WIND 1400FT 02006KT
SVJ ENSH Svolvær, NO Svolvær Helle Airport 2 9/1 30.41 ENSH 250820Z AUTO 10002KT 9999 NCD 09/01 Q1030 RMK WIND 0150FT /////KT
SKN ENSK Hadsel, NO Stokmarknes Skagen Airport 8 8/1 30.41 ENSK 250820Z 11008KT CAVOK 08/01 Q1030
TOS ENTC Tromsø, NO Tromsø Airport 7 6/-3 30.41 ENTC 250820Z 20007KT 9999 BKN045 06/M03 Q1030 NOSIG RMK WIND 2600FT 26008KT
JNB FAOR Johannesburg, ZA OR Tambo International Airport 7 17/5 30.41 FAOR 250830Z 31007KT CAVOK 17/05 Q1030 NOSIG
TLC MMTO Toluca, MX Licenciado Adolfo Lopez Mateos International Airport 3 8 15/11 30.40 MMTO 250741Z 21003KT 8SM SCT020 BKN080 15/11 A3040 RMK 8/530
FVRG 5 20/5 30.38 FVRG 250800Z 12005KT CAVOK 20/05 Q1029 NOSIG
WDH FYWH Windhoek, NA Hosea Kutako International Airport 3 19/1 30.38 FYWH 250800Z 03003KT CAVOK 19/01 Q1029 NOSIG
AEP SABE Buenos Aires, AR Jorge Newbery Airpark 4 5/-1 30.38 SABE 250800Z 21004KT 160V250 CAVOK 05/M01 Q1029 NOSIG
COR SACO Cordoba, AR Ingeniero Ambrosio Taravella Airport 2 6/5 30.38 SACO 250800Z 08002KT 9999 FEW020 OVC030 06/05 Q1029 NOSIG
FDO SADF San Fernando, AR San Fernando Airport 4 2/0 30.38 SADF 250800Z 24004KT CAVOK 02/M00 Q1029
EZE SAEZ Buenos Aires, AR Ministro Pistarini International Airport 4 0/-1 30.38 SAEZ 250800Z 24004KT CAVOK 00/M01 Q1029 NOSIG
USH SAWH Ushuahia, AR Malvinas Argentinas Airport 3 1/0 30.38 SAWH 250800Z 28003KT 9999 SCT010 01/M00 Q1029
PUQ SCCI Punta Arenas, CL Pdte. Carlos Ibañez del Campo Airport 4 -2/-3 30.38 SCCI 250800Z 33004KT 9999 BKN009 M02/M03 Q1029 NOSIG
URA UARR Uralsk, KZ Uralsk Airport 12 20/-1 30.38 UARR 250800Z 29006MPS 260V320 CAVOK 20/M01 Q1029 NOSIG RMK QFE768/1024
GME UMGG Gomel, BY Gomel Airport 12 21/7 30.38 UMGG 250800Z 15006MPS CAVOK 21/07 Q1029 NOSIG
ASF URWA Astrakhan, RU Astrakhan Airport 23 19/1 30.38 URWA 250800Z 11012MPS CAVOK 19/01 Q1029 R09/010070 NOSIG RMK QFE773/1031
ZIA UUBW Moscow, RU Zhukovsky International Airport 6 21/0 30.38 UUBW 250800Z 26003MPS 180V290 CAVOK 21/00 Q1029 R30/010060 NOSIG RMK QFE762
SVO UUEE Moscow, RU Sheremetyevo International Airport 8 21/0 30.38 UUEE 250800Z 25004MPS 170V290 CAVOK 21/M00 Q1029 R24C/CLRD62 NOSIG
VKO UUWW Moscow, RU Vnukovo International Airport 10 20/1 30.38 UUWW 250800Z 23005MPS CAVOK 20/01 Q1029 R24/000070 NOSIG